sensor_id;sensor_type;location;lat;lon;timestamp;pressure;altitude;pressure_sealevel;temperature;humidity
76128;BME280;64873;50.102;14.434;2022-12-26T00:01:18;99292.44;;;4.01;87.50
76128;BME280;64873;50.102;14.434;2022-12-26T00:03:44;99297.59;;;3.95;87.42
76128;BME280;64873;50.102;14.434;2022-12-26T00:06:18;99301.84;;;4.04;87.25
76128;BME280;64873;50.102;14.434;2022-12-26T00:08:44;99308.84;;;4.20;86.29
76128;BME280;64873;50.102;14.434;2022-12-26T00:11:10;99317.25;;;4.00;86.47
76128;BME280;64873;50.102;14.434;2022-12-26T00:13:36;99313.03;;;3.83;87.03
76128;BME280;64873;50.102;14.434;2022-12-26T00:16:10;99308.25;;;3.79;87.26
76128;BME280;64873;50.102;14.434;2022-12-26T00:18:36;99319.78;;;3.86;86.88
76128;BME280;64873;50.102;14.434;2022-12-26T00:21:02;99327.50;;;3.95;87.08
76128;BME280;64873;50.102;14.434;2022-12-26T00:23:27;99310.34;;;3.91;87.01
76128;BME280;64873;50.102;14.434;2022-12-26T00:25:53;99332.47;;;3.90;87.12
76128;BME280;64873;50.102;14.434;2022-12-26T00:28:18;99334.31;;;3.90;87.23
76128;BME280;64873;50.102;14.434;2022-12-26T00:30:44;99307.38;;;3.86;86.58
76128;BME280;64873;50.102;14.434;2022-12-26T00:33:09;99330.78;;;3.97;86.62
76128;BME280;64873;50.102;14.434;2022-12-26T00:35:35;99343.63;;;4.09;86.27
76128;BME280;64873;50.102;14.434;2022-12-26T00:38:00;99353.88;;;4.12;86.57
76128;BME280;64873;50.102;14.434;2022-12-26T00:40:25;99355.81;;;4.18;86.56
76128;BME280;64873;50.102;14.434;2022-12-26T00:42:51;99356.97;;;4.15;86.42
76128;BME280;64873;50.102;14.434;2022-12-26T00:45:16;99326.25;;;4.14;86.35
76128;BME280;64873;50.102;14.434;2022-12-26T00:47:42;99331.03;;;4.19;86.05
76128;BME280;64873;50.102;14.434;2022-12-26T00:50:07;99324.03;;;4.26;86.14
76128;BME280;64873;50.102;14.434;2022-12-26T00:52:33;99330.56;;;4.38;86.62
76128;BME280;64873;50.102;14.434;2022-12-26T00:54:58;99321.63;;;4.39;87.25
76128;BME280;64873;50.102;14.434;2022-12-26T00:57:24;99328.63;;;4.55;86.66
76128;BME280;64873;50.102;14.434;2022-12-26T00:59:49;99322.44;;;4.17;86.78
76128;BME280;64873;50.102;14.434;2022-12-26T01:02:14;99338.44;;;4.23;86.92
76128;BME280;64873;50.102;14.434;2022-12-26T01:04:58;99311.72;;;4.41;85.80
76128;BME280;64873;50.102;14.434;2022-12-26T01:07:24;99310.59;;;4.59;84.79
76128;BME280;64873;50.102;14.434;2022-12-26T01:09:49;99321.06;;;4.52;85.39
76128;BME280;64873;50.102;14.434;2022-12-26T01:12:15;99316.00;;;4.42;85.21
76128;BME280;64873;50.102;14.434;2022-12-26T01:14:40;99321.47;;;4.41;85.97
76128;BME280;64873;50.102;14.434;2022-12-26T01:17:05;99312.31;;;4.51;85.82
76128;BME280;64873;50.102;14.434;2022-12-26T01:19:31;99306.63;;;4.32;85.83
76128;BME280;64873;50.102;14.434;2022-12-26T01:21:56;99322.31;;;4.33;86.16
76128;BME280;64873;50.102;14.434;2022-12-26T01:24:22;99323.44;;;4.39;86.17
76128;BME280;64873;50.102;14.434;2022-12-26T01:26:47;99309.97;;;4.25;86.27
76128;BME280;64873;50.102;14.434;2022-12-26T01:29:12;99312.41;;;4.35;86.24
76128;BME280;64873;50.102;14.434;2022-12-26T01:31:38;99324.03;;;4.72;84.64
76128;BME280;64873;50.102;14.434;2022-12-26T01:34:03;99316.72;;;4.74;84.00
76128;BME280;64873;50.102;14.434;2022-12-26T01:36:29;99312.34;;;4.66;84.15
76128;BME280;64873;50.102;14.434;2022-12-26T01:38:54;99320.47;;;4.65;84.40
76128;BME280;64873;50.102;14.434;2022-12-26T01:41:20;99316.81;;;4.66;84.46
76128;BME280;64873;50.102;14.434;2022-12-26T01:46:15;99338.72;;;4.74;84.19
76128;BME280;64873;50.102;14.434;2022-12-26T01:48:41;99332.69;;;4.66;83.83
76128;BME280;64873;50.102;14.434;2022-12-26T01:51:06;99336.44;;;4.48;84.60
76128;BME280;64873;50.102;14.434;2022-12-26T01:53:38;99333.16;;;4.46;85.03
76128;BME280;64873;50.102;14.434;2022-12-26T01:56:14;99335.09;;;4.52;84.58
76128;BME280;64873;50.102;14.434;2022-12-26T01:59:04;99328.63;;;4.55;84.63
76128;BME280;64873;50.102;14.434;2022-12-26T02:01:32;99302.25;;;4.47;85.02
76128;BME280;64873;50.102;14.434;2022-12-26T02:04:01;99288.66;;;4.88;86.22
76128;BME280;64873;50.102;14.434;2022-12-26T02:06:48;99287.81;;;5.40;86.06
76128;BME280;64873;50.102;14.434;2022-12-26T02:09:14;99275.56;;;5.24;83.22
76128;BME280;64873;50.102;14.434;2022-12-26T02:11:44;99293.09;;;5.10;83.09
76128;BME280;64873;50.102;14.434;2022-12-26T02:14:11;99277.75;;;4.68;83.63
76128;BME280;64873;50.102;14.434;2022-12-26T02:16:38;99285.63;;;4.76;84.46
76128;BME280;64873;50.102;14.434;2022-12-26T02:19:08;99282.34;;;4.51;85.00
76128;BME280;64873;50.102;14.434;2022-12-26T02:21:57;99294.63;;;4.67;84.49
76128;BME280;64873;50.102;14.434;2022-12-26T02:30:26;99292.56;;;4.77;85.32
76128;BME280;64873;50.102;14.434;2022-12-26T02:35:59;99273.06;;;5.07;84.53
76128;BME280;64873;50.102;14.434;2022-12-26T02:41:38;99233.50;;;4.91;84.76
76128;BME280;64873;50.102;14.434;2022-12-26T02:44:42;99231.06;;;5.04;84.58
76128;BME280;64873;50.102;14.434;2022-12-26T02:51:39;99267.78;;;5.07;84.85
76128;BME280;64873;50.102;14.434;2022-12-26T02:54:36;99271.53;;;5.13;84.82
76128;BME280;64873;50.102;14.434;2022-12-26T02:57:19;99260.84;;;5.21;84.26
76128;BME280;64873;50.102;14.434;2022-12-26T03:00:16;99263.69;;;6.00;87.22
76128;BME280;64873;50.102;14.434;2022-12-26T03:03:06;99247.34;;;5.82;84.93
76128;BME280;64873;50.102;14.434;2022-12-26T03:05:57;99260.31;;;5.92;83.19
76128;BME280;64873;50.102;14.434;2022-12-26T03:11:49;99247.72;;;6.36;81.94
76128;BME280;64873;50.102;14.434;2022-12-26T03:14:40;99255.25;;;6.33;80.53
76128;BME280;64873;50.102;14.434;2022-12-26T03:17:10;99249.19;;;6.18;81.37
76128;BME280;64873;50.102;14.434;2022-12-26T03:19:55;99255.47;;;5.95;81.72
76128;BME280;64873;50.102;14.434;2022-12-26T03:22:47;99256.94;;;5.83;82.37
76128;BME280;64873;50.102;14.434;2022-12-26T03:25:19;99250.63;;;5.84;82.62
76128;BME280;64873;50.102;14.434;2022-12-26T03:28:07;99251.84;;;5.67;82.92
76128;BME280;64873;50.102;14.434;2022-12-26T03:30:33;99258.22;;;5.87;82.75
76128;BME280;64873;50.102;14.434;2022-12-26T03:33:22;99254.56;;;5.88;82.71
76128;BME280;64873;50.102;14.434;2022-12-26T03:36:12;99258.69;;;5.76;83.01
76128;BME280;64873;50.102;14.434;2022-12-26T03:39:00;99258.91;;;5.59;83.66
76128;BME280;64873;50.102;14.434;2022-12-26T03:41:43;99256.19;;;5.53;84.60
76128;BME280;64873;50.102;14.434;2022-12-26T03:44:49;99254.97;;;5.55;84.86
76128;BME280;64873;50.102;14.434;2022-12-26T03:47:53;99239.63;;;5.51;84.66
76128;BME280;64873;50.102;14.434;2022-12-26T03:50:43;99250.41;;;5.49;85.08
76128;BME280;64873;50.102;14.434;2022-12-26T03:53:35;99257.91;;;5.60;84.87
76128;BME280;64873;50.102;14.434;2022-12-26T03:56:30;99249.47;;;5.72;84.89
76128;BME280;64873;50.102;14.434;2022-12-26T03:59:22;99251.03;;;5.66;84.82
76128;BME280;64873;50.102;14.434;2022-12-26T04:02:09;99261.50;;;6.25;85.60
76128;BME280;64873;50.102;14.434;2022-12-26T04:04:55;99257.78;;;6.41;86.02
76128;BME280;64873;50.102;14.434;2022-12-26T04:07:45;99250.88;;;6.96;85.60
76128;BME280;64873;50.102;14.434;2022-12-26T04:10:37;99249.94;;;7.10;84.49
76128;BME280;64873;50.102;14.434;2022-12-26T04:13:29;99220.09;;;7.08;83.94
76128;BME280;64873;50.102;14.434;2022-12-26T04:16:20;99237.06;;;6.79;81.55
76128;BME280;64873;50.102;14.434;2022-12-26T04:22:22;99224.59;;;6.52;82.21
76128;BME280;64873;50.102;14.434;2022-12-26T04:25:15;99239.81;;;6.43;82.83
76128;BME280;64873;50.102;14.434;2022-12-26T04:28:00;99239.22;;;6.41;83.32
76128;BME280;64873;50.102;14.434;2022-12-26T04:30:49;99234.63;;;6.56;82.47
76128;BME280;64873;50.102;14.434;2022-12-26T04:33:41;99238.72;;;6.80;81.90
76128;BME280;64873;50.102;14.434;2022-12-26T04:36:36;99254.81;;;7.07;80.51
76128;BME280;64873;50.102;14.434;2022-12-26T04:39:24;99254.38;;;7.03;80.44
76128;BME280;64873;50.102;14.434;2022-12-26T04:42:11;99246.66;;;7.08;80.15
76128;BME280;64873;50.102;14.434;2022-12-26T04:44:56;99244.31;;;7.27;79.73
76128;BME280;64873;50.102;14.434;2022-12-26T04:47:22;99247.44;;;7.37;79.74
76128;BME280;64873;50.102;14.434;2022-12-26T04:49:48;99233.50;;;7.28;79.44
76128;BME280;64873;50.102;14.434;2022-12-26T04:52:32;99247.63;;;7.35;79.29
76128;BME280;64873;50.102;14.434;2022-12-26T04:55:16;99241.88;;;7.32;79.31
76128;BME280;64873;50.102;14.434;2022-12-26T04:57:42;99242.09;;;7.30;79.51
76128;BME280;64873;50.102;14.434;2022-12-26T05:00:08;99258.72;;;7.39;79.39
76128;BME280;64873;50.102;14.434;2022-12-26T05:02:34;99246.34;;;7.25;79.89
76128;BME280;64873;50.102;14.434;2022-12-26T05:05:18;99256.91;;;7.46;80.97
76128;BME280;64873;50.102;14.434;2022-12-26T05:08:02;99255.25;;;7.45;81.99
76128;BME280;64873;50.102;14.434;2022-12-26T05:10:46;99259.16;;;7.49;79.78
76128;BME280;64873;50.102;14.434;2022-12-26T05:13:11;99284.28;;;7.81;82.19
76128;BME280;64873;50.102;14.434;2022-12-26T05:15:36;99276.41;;;7.66;78.37
76128;BME280;64873;50.102;14.434;2022-12-26T05:18:20;99281.50;;;7.61;79.24
76128;BME280;64873;50.102;14.434;2022-12-26T05:21:08;99284.56;;;7.58;78.63
76128;BME280;64873;50.102;14.434;2022-12-26T05:23:55;99286.66;;;7.63;78.62
76128;BME280;64873;50.102;14.434;2022-12-26T05:26:39;99272.66;;;7.47;79.21
76128;BME280;64873;50.102;14.434;2022-12-26T05:29:24;99281.63;;;7.40;79.92
76128;BME280;64873;50.102;14.434;2022-12-26T05:31:50;99247.53;;;7.15;79.76
76128;BME280;64873;50.102;14.434;2022-12-26T05:34:15;99267.72;;;7.44;79.19
76128;BME280;64873;50.102;14.434;2022-12-26T05:36:49;99285.78;;;7.56;78.94
76128;BME280;64873;50.102;14.434;2022-12-26T05:39:16;99287.47;;;7.63;78.74
76128;BME280;64873;50.102;14.434;2022-12-26T05:41:41;99280.50;;;7.62;78.38
76128;BME280;64873;50.102;14.434;2022-12-26T05:44:08;99279.88;;;7.60;78.54
76128;BME280;64873;50.102;14.434;2022-12-26T05:46:34;99282.53;;;7.60;78.60
76128;BME280;64873;50.102;14.434;2022-12-26T05:49:00;99273.56;;;7.68;78.77
76128;BME280;64873;50.102;14.434;2022-12-26T05:51:26;99255.88;;;7.47;78.71
76128;BME280;64873;50.102;14.434;2022-12-26T05:53:51;99252.78;;;7.43;79.06
76128;BME280;64873;50.102;14.434;2022-12-26T05:56:18;99269.78;;;7.49;79.41
76128;BME280;64873;50.102;14.434;2022-12-26T05:58:44;99260.59;;;7.45;79.17
76128;BME280;64873;50.102;14.434;2022-12-26T06:03:36;99252.75;;;7.37;79.90
76128;BME280;64873;50.102;14.434;2022-12-26T06:06:02;99269.16;;;7.47;79.39
76128;BME280;64873;50.102;14.434;2022-12-26T06:08:28;99252.31;;;7.74;78.36
76128;BME280;64873;50.102;14.434;2022-12-26T06:10:53;99258.03;;;7.71;78.09
76128;BME280;64873;50.102;14.434;2022-12-26T06:13:19;99266.25;;;7.77;78.11
76128;BME280;64873;50.102;14.434;2022-12-26T06:15:44;99258.31;;;8.03;81.31
76128;BME280;64873;50.102;14.434;2022-12-26T06:18:09;99258.97;;;8.05;79.23
76128;BME280;64873;50.102;14.434;2022-12-26T06:20:37;99245.00;;;7.90;78.11
76128;BME280;64873;50.102;14.434;2022-12-26T06:23:03;99244.06;;;8.31;79.72
76128;BME280;64873;50.102;14.434;2022-12-26T06:25:28;99245.06;;;8.16;77.51
76128;BME280;64873;50.102;14.434;2022-12-26T06:27:54;99243.22;;;8.10;77.16
76128;BME280;64873;50.102;14.434;2022-12-26T06:30:19;99250.97;;;7.98;77.78
76128;BME280;64873;50.102;14.434;2022-12-26T06:32:44;99244.22;;;8.02;77.62
76128;BME280;64873;50.102;14.434;2022-12-26T06:35:10;99211.06;;;8.05;77.18
76128;BME280;64873;50.102;14.434;2022-12-26T06:37:37;99234.00;;;8.19;77.22
76128;BME280;64873;50.102;14.434;2022-12-26T06:40:02;99230.53;;;8.19;76.76
76128;BME280;64873;50.102;14.434;2022-12-26T06:42:28;99227.47;;;8.15;76.91
76128;BME280;64873;50.102;14.434;2022-12-26T06:44:53;99238.94;;;8.09;77.21
76128;BME280;64873;50.102;14.434;2022-12-26T06:47:19;99249.16;;;8.12;77.06
76128;BME280;64873;50.102;14.434;2022-12-26T06:49:44;99261.84;;;8.10;77.28
76128;BME280;64873;50.102;14.434;2022-12-26T06:52:10;99266.16;;;8.18;76.82
76128;BME280;64873;50.102;14.434;2022-12-26T06:54:36;99257.97;;;8.19;76.88
76128;BME280;64873;50.102;14.434;2022-12-26T06:57:01;99242.56;;;8.01;77.05
76128;BME280;64873;50.102;14.434;2022-12-26T06:59:27;99254.09;;;8.15;76.95
76128;BME280;64873;50.102;14.434;2022-12-26T07:02:31;99252.47;;;8.27;76.58
76128;BME280;64873;50.102;14.434;2022-12-26T07:05:15;99242.84;;;8.33;76.23
76128;BME280;64873;50.102;14.434;2022-12-26T07:07:50;99250.47;;;8.43;75.92
76128;BME280;64873;50.102;14.434;2022-12-26T07:10:17;99229.53;;;8.33;75.54
76128;BME280;64873;50.102;14.434;2022-12-26T07:12:43;99260.94;;;8.44;75.63
76128;BME280;64873;50.102;14.434;2022-12-26T07:15:08;99248.44;;;8.45;75.62
76128;BME280;64873;50.102;14.434;2022-12-26T07:17:35;99236.31;;;8.42;75.82
76128;BME280;64873;50.102;14.434;2022-12-26T07:20:01;99240.44;;;8.45;75.52
76128;BME280;64873;50.102;14.434;2022-12-26T07:22:27;99216.84;;;8.28;77.35
76128;BME280;64873;50.102;14.434;2022-12-26T07:24:53;99219.28;;;8.23;77.61
76128;BME280;64873;50.102;14.434;2022-12-26T07:27:18;99236.16;;;8.57;75.34
76128;BME280;64873;50.102;14.434;2022-12-26T07:29:45;99236.34;;;8.69;76.36
76128;BME280;64873;50.102;14.434;2022-12-26T07:32:11;99237.34;;;8.61;75.62
76128;BME280;64873;50.102;14.434;2022-12-26T07:34:36;99247.63;;;8.58;75.03
76128;BME280;64873;50.102;14.434;2022-12-26T07:37:02;99235.72;;;8.60;75.47
76128;BME280;64873;50.102;14.434;2022-12-26T07:39:27;99245.78;;;8.58;75.33
76128;BME280;64873;50.102;14.434;2022-12-26T07:41:52;99233.66;;;8.55;74.77
76128;BME280;64873;50.102;14.434;2022-12-26T07:44:25;99240.22;;;8.40;75.80
76128;BME280;64873;50.102;14.434;2022-12-26T07:46:51;99259.91;;;8.39;76.06
76128;BME280;64873;50.102;14.434;2022-12-26T07:49:17;99261.16;;;8.56;75.37
76128;BME280;64873;50.102;14.434;2022-12-26T07:51:42;99236.97;;;8.64;74.73
76128;BME280;64873;50.102;14.434;2022-12-26T07:54:08;99261.16;;;8.56;74.95
76128;BME280;64873;50.102;14.434;2022-12-26T07:56:34;99266.06;;;8.59;75.26
76128;BME280;64873;50.102;14.434;2022-12-26T07:58:59;99256.22;;;8.73;74.36
76128;BME280;64873;50.102;14.434;2022-12-26T08:01:25;99262.75;;;8.90;74.17
76128;BME280;64873;50.102;14.434;2022-12-26T08:03:51;99252.91;;;8.91;73.58
76128;BME280;64873;50.102;14.434;2022-12-26T08:06:17;99265.63;;;8.89;73.97
76128;BME280;64873;50.102;14.434;2022-12-26T08:08:44;99258.69;;;8.88;73.88
76128;BME280;64873;50.102;14.434;2022-12-26T08:11:14;99276.31;;;8.89;74.16
76128;BME280;64873;50.102;14.434;2022-12-26T08:13:40;99268.50;;;8.94;73.75
76128;BME280;64873;50.102;14.434;2022-12-26T08:16:07;99267.91;;;8.98;73.84
76128;BME280;64873;50.102;14.434;2022-12-26T08:18:33;99260.09;;;8.97;73.27
76128;BME280;64873;50.102;14.434;2022-12-26T08:20:59;99279.16;;;9.14;73.08
76128;BME280;64873;50.102;14.434;2022-12-26T08:23:25;99283.66;;;9.06;76.83
76128;BME280;64873;50.102;14.434;2022-12-26T08:25:51;99274.25;;;8.84;76.59
76128;BME280;64873;50.102;14.434;2022-12-26T08:28:16;99282.63;;;9.14;77.16
76128;BME280;64873;50.102;14.434;2022-12-26T08:30:42;99283.44;;;9.34;76.72
76128;BME280;64873;50.102;14.434;2022-12-26T08:33:09;99297.38;;;9.37;76.54
76128;BME280;64873;50.102;14.434;2022-12-26T08:35:36;99298.44;;;9.22;75.19
76128;BME280;64873;50.102;14.434;2022-12-26T08:38:02;99292.09;;;9.10;73.48
76128;BME280;64873;50.102;14.434;2022-12-26T08:40:28;99295.53;;;9.24;73.09
76128;BME280;64873;50.102;14.434;2022-12-26T08:42:53;99288.78;;;9.21;72.86
76128;BME280;64873;50.102;14.434;2022-12-26T08:45:19;99282.44;;;9.09;73.08
76128;BME280;64873;50.102;14.434;2022-12-26T08:47:44;99275.47;;;9.21;72.37
76128;BME280;64873;50.102;14.434;2022-12-26T08:50:10;99266.63;;;9.14;72.31
76128;BME280;64873;50.102;14.434;2022-12-26T08:52:36;99304.16;;;9.39;71.97
76128;BME280;64873;50.102;14.434;2022-12-26T08:55:02;99282.63;;;9.14;72.32
76128;BME280;64873;50.102;14.434;2022-12-26T08:57:27;99295.56;;;9.11;72.67
76128;BME280;64873;50.102;14.434;2022-12-26T08:59:53;99298.63;;;9.27;72.75
76128;BME280;64873;50.102;14.434;2022-12-26T09:02:18;99301.91;;;9.23;72.54
76128;BME280;64873;50.102;14.434;2022-12-26T09:04:44;99303.56;;;9.17;72.97
76128;BME280;64873;50.102;14.434;2022-12-26T09:07:09;99305.78;;;9.33;72.31
76128;BME280;64873;50.102;14.434;2022-12-26T09:09:35;99293.06;;;9.35;71.85
76128;BME280;64873;50.102;14.434;2022-12-26T09:12:00;99291.81;;;9.45;71.85
76128;BME280;64873;50.102;14.434;2022-12-26T09:14:26;99307.81;;;9.51;71.74
76128;BME280;64873;50.102;14.434;2022-12-26T09:16:51;99311.31;;;9.45;71.73
76128;BME280;64873;50.102;14.434;2022-12-26T09:19:19;99305.56;;;9.42;71.86
76128;BME280;64873;50.102;14.434;2022-12-26T09:21:46;99295.72;;;9.42;71.86
76128;BME280;64873;50.102;14.434;2022-12-26T09:24:16;99303.69;;;9.55;71.19
76128;BME280;64873;50.102;14.434;2022-12-26T09:26:42;99306.75;;;9.59;71.56
76128;BME280;64873;50.102;14.434;2022-12-26T09:29:11;99308.38;;;9.73;71.15
76128;BME280;64873;50.102;14.434;2022-12-26T09:31:37;99304.03;;;9.72;71.33
76128;BME280;64873;50.102;14.434;2022-12-26T09:34:04;99301.16;;;9.80;74.58
76128;BME280;64873;50.102;14.434;2022-12-26T09:36:32;99286.75;;;9.88;72.68
76128;BME280;64873;50.102;14.434;2022-12-26T09:38:58;99299.84;;;10.03;70.90
76128;BME280;64873;50.102;14.434;2022-12-26T09:44:44;99304.41;;;9.89;70.95
76128;BME280;64873;50.102;14.434;2022-12-26T09:50:19;99307.16;;;10.14;69.93
76128;BME280;64873;50.102;14.434;2022-12-26T09:52:54;99296.09;;;10.10;69.83
76128;BME280;64873;50.102;14.434;2022-12-26T09:57:54;99304.03;;;10.30;69.51
76128;BME280;64873;50.102;14.434;2022-12-26T10:00:28;99293.09;;;10.38;69.08
76128;BME280;64873;50.102;14.434;2022-12-26T10:02:57;99292.19;;;10.51;68.65
76128;BME280;64873;50.102;14.434;2022-12-26T10:05:27;99281.72;;;10.50;68.69
76128;BME280;64873;50.102;14.434;2022-12-26T10:11:00;99260.09;;;10.58;68.43
76128;BME280;64873;50.102;14.434;2022-12-26T10:13:47;99263.63;;;10.52;68.84
76128;BME280;64873;50.102;14.434;2022-12-26T10:16:22;99261.81;;;10.46;68.85
76128;BME280;64873;50.102;14.434;2022-12-26T10:19:05;99264.50;;;10.46;68.89
76128;BME280;64873;50.102;14.434;2022-12-26T10:21:48;99270.78;;;10.58;68.83
76128;BME280;64873;50.102;14.434;2022-12-26T10:24:23;99253.53;;;10.54;68.68
76128;BME280;64873;50.102;14.434;2022-12-26T10:26:59;99256.66;;;10.51;69.09
76128;BME280;64873;50.102;14.434;2022-12-26T10:29:30;99261.06;;;10.63;68.79
76128;BME280;64873;50.102;14.434;2022-12-26T10:32:07;99259.03;;;10.59;68.43
76128;BME280;64873;50.102;14.434;2022-12-26T10:34:43;99266.63;;;10.62;68.82
76128;BME280;64873;50.102;14.434;2022-12-26T10:42:44;99266.13;;;10.72;73.06
76128;BME280;64873;50.102;14.434;2022-12-26T10:47:49;99265.19;;;10.84;72.68
76128;BME280;64873;50.102;14.434;2022-12-26T10:50:27;99242.31;;;10.70;68.82
76128;BME280;64873;50.102;14.434;2022-12-26T10:52:53;99255.06;;;10.68;69.09
76128;BME280;64873;50.102;14.434;2022-12-26T10:55:27;99265.66;;;10.81;68.89
76128;BME280;64873;50.102;14.434;2022-12-26T10:57:53;99247.16;;;10.80;68.87
76128;BME280;64873;50.102;14.434;2022-12-26T11:00:25;99254.34;;;11.04;68.39
76128;BME280;64873;50.102;14.434;2022-12-26T11:03:04;99260.69;;;11.10;67.98
76128;BME280;64873;50.102;14.434;2022-12-26T11:05:30;99233.69;;;11.11;67.61
76128;BME280;64873;50.102;14.434;2022-12-26T11:08:06;99246.59;;;11.39;67.29
76128;BME280;64873;50.102;14.434;2022-12-26T11:10:32;99229.19;;;11.48;66.60
76128;BME280;64873;50.102;14.434;2022-12-26T11:13:05;99249.09;;;11.71;66.46
76128;BME280;64873;50.102;14.434;2022-12-26T11:15:34;99237.22;;;11.67;66.41
76128;BME280;64873;50.102;14.434;2022-12-26T11:20:43;99240.47;;;11.87;66.74
76128;BME280;64873;50.102;14.434;2022-12-26T11:23:31;99246.88;;;11.86;67.07
76128;BME280;64873;50.102;14.434;2022-12-26T11:25:59;99238.00;;;12.04;66.79
76128;BME280;64873;50.102;14.434;2022-12-26T11:28:33;99237.44;;;11.47;68.48
76128;BME280;64873;50.102;14.434;2022-12-26T11:31:02;99215.97;;;11.35;68.86
76128;BME280;64873;50.102;14.434;2022-12-26T11:33:43;99230.69;;;11.26;69.40
76128;BME280;64873;50.102;14.434;2022-12-26T11:39:04;99239.59;;;11.38;69.62
76128;BME280;64873;50.102;14.434;2022-12-26T11:41:33;99231.44;;;11.33;70.07
76128;BME280;64873;50.102;14.434;2022-12-26T11:46:40;99231.44;;;11.33;70.36
76128;BME280;64873;50.102;14.434;2022-12-26T11:49:16;99229.78;;;11.32;70.24
76128;BME280;64873;50.102;14.434;2022-12-26T11:51:46;99241.31;;;11.33;70.96
76128;BME280;64873;50.102;14.434;2022-12-26T11:56:37;99221.47;;;11.40;69.76
76128;BME280;64873;50.102;14.434;2022-12-26T11:59:16;99216.63;;;11.31;70.27
76128;BME280;64873;50.102;14.434;2022-12-26T12:01:43;99215.13;;;11.35;70.10
76128;BME280;64873;50.102;14.434;2022-12-26T12:04:08;99213.88;;;11.37;70.24
76128;BME280;64873;50.102;14.434;2022-12-26T12:06:46;99225.91;;;11.46;69.74
76128;BME280;64873;50.102;14.434;2022-12-26T12:12:04;99229.19;;;11.48;69.54
76128;BME280;64873;50.102;14.434;2022-12-26T12:14:42;99216.53;;;11.37;69.60
76128;BME280;64873;50.102;14.434;2022-12-26T12:17:35;99242.28;;;11.57;69.27
76128;BME280;64873;50.102;14.434;2022-12-26T12:20:22;99231.41;;;11.70;68.81
76128;BME280;64873;50.102;14.434;2022-12-26T12:31:11;99245.38;;;11.72;68.66
76128;BME280;64873;50.102;14.434;2022-12-26T12:33:49;99247.16;;;11.60;69.13
76128;BME280;64873;50.102;14.434;2022-12-26T12:36:23;99244.22;;;11.68;68.89
76128;BME280;64873;50.102;14.434;2022-12-26T12:42:04;99233.63;;;11.55;70.02
76128;BME280;64873;50.102;14.434;2022-12-26T12:44:51;99219.38;;;11.42;71.81
76128;BME280;64873;50.102;14.434;2022-12-26T12:50:23;99227.78;;;11.28;72.67
76128;BME280;64873;50.102;14.434;2022-12-26T12:55:47;99211.00;;;11.20;73.13
76128;BME280;64873;50.102;14.434;2022-12-26T13:00:58;99200.47;;;11.01;73.64
76128;BME280;64873;50.102;14.434;2022-12-26T13:03:32;99243.59;;;11.11;73.34
76128;BME280;64873;50.102;14.434;2022-12-26T13:08:33;99252.88;;;11.08;73.46
76128;BME280;64873;50.102;14.434;2022-12-26T13:11:08;99227.84;;;11.03;73.19
76128;BME280;64873;50.102;14.434;2022-12-26T13:13:42;99243.00;;;11.09;73.44
76128;BME280;64873;50.102;14.434;2022-12-26T13:16:25;99230.50;;;11.03;73.59
76128;BME280;64873;50.102;14.434;2022-12-26T13:18:56;99216.28;;;11.02;74.08
76128;BME280;64873;50.102;14.434;2022-12-26T13:21:24;99213.13;;;11.12;73.75
76128;BME280;64873;50.102;14.434;2022-12-26T13:23:59;99228.03;;;11.01;74.20
76128;BME280;64873;50.102;14.434;2022-12-26T13:26:56;99230.34;;;10.98;74.26
76128;BME280;64873;50.102;14.434;2022-12-26T13:29:40;99214.28;;;10.79;74.40
76128;BME280;64873;50.102;14.434;2022-12-26T13:32:16;99206.69;;;10.76;74.38
76128;BME280;64873;50.102;14.434;2022-12-26T13:34:44;99175.66;;;10.75;74.30
76128;BME280;64873;50.102;14.434;2022-12-26T13:40:14;99158.50;;;10.83;74.05
76128;BME280;64873;50.102;14.434;2022-12-26T13:43:13;99155.47;;;10.79;74.24
76128;BME280;64873;50.102;14.434;2022-12-26T13:46:00;99235.66;;;10.79;74.18
76128;BME280;64873;50.102;14.434;2022-12-26T13:51:01;99243.94;;;10.71;74.52
76128;BME280;64873;50.102;14.434;2022-12-26T13:53:38;99269.72;;;10.84;73.61
76128;BME280;64873;50.102;14.434;2022-12-26T13:59:08;99275.91;;;10.84;73.45
76128;BME280;64873;50.102;14.434;2022-12-26T14:15:02;99244.63;;;10.60;73.16
76128;BME280;64873;50.102;14.434;2022-12-26T14:17:53;99236.63;;;10.60;73.33
76128;BME280;64873;50.102;14.434;2022-12-26T14:23:20;99226.81;;;10.54;73.27
76128;BME280;64873;50.102;14.434;2022-12-26T14:25:54;99234.66;;;10.49;73.58
76128;BME280;64873;50.102;14.434;2022-12-26T14:48:47;99256.59;;;10.26;74.29
76128;BME280;64873;50.102;14.434;2022-12-26T14:53:33;99285.16;;;10.25;74.38
76128;BME280;64873;50.102;14.434;2022-12-26T14:58:46;99293.97;;;10.32;74.71
76128;BME280;64873;50.102;14.434;2022-12-26T15:03:50;99293.56;;;10.29;74.51
76128;BME280;64873;50.102;14.434;2022-12-26T15:14:04;99296.22;;;10.29;74.46
76128;BME280;64873;50.102;14.434;2022-12-26T15:22:54;99301.34;;;10.30;74.70
76128;BME280;64873;50.102;14.434;2022-12-26T15:31:35;99303.84;;;10.25;74.88
76128;BME280;64873;50.102;14.434;2022-12-26T15:50:25;99294.44;;;10.16;74.84
76128;BME280;64873;50.102;14.434;2022-12-26T15:55:54;99312.75;;;10.06;75.65
76128;BME280;64873;50.102;14.434;2022-12-26T16:00:57;99304.59;;;9.94;76.13
76128;BME280;64873;50.102;14.434;2022-12-26T16:03:38;99311.75;;;10.00;75.79
76128;BME280;64873;50.102;14.434;2022-12-26T16:11:16;99303.66;;;10.13;75.46
76128;BME280;64873;50.102;14.434;2022-12-26T16:13:50;99285.09;;;9.94;75.77
76128;BME280;64873;50.102;14.434;2022-12-26T16:16:34;99298.56;;;10.05;75.60
76128;BME280;64873;50.102;14.434;2022-12-26T16:19:26;99296.53;;;10.01;75.53
76128;BME280;64873;50.102;14.434;2022-12-26T16:21:55;99300.25;;;10.00;75.79
76128;BME280;64873;50.102;14.434;2022-12-26T16:24:42;99293.28;;;9.99;75.65
76128;BME280;64873;50.102;14.434;2022-12-26T16:27:15;99313.81;;;9.98;75.94
76128;BME280;64873;50.102;14.434;2022-12-26T16:29:50;99301.53;;;9.84;76.11